Terminal Aerodrome Forecast
Issued by NWS

Current Version | Previous Version | Text Only | Print | Product List | Glossary Off
Versions: 1 2 3 4 5 6 7 8 9 10 11 12 13 14 15 16 17 18 19 20

000
FTUS41 KPBZ 200520
TAFMGW
TAF
KMGW 200520Z 2006/2106 14003KT P6SM SKC
     FM200800 15003KT 3SM BR SKC
     FM200900 15003KT 1/2SM FG FEW002
     FM201000 00000KT 1/4SM FG VV002
     FM201300 00000KT 4SM BR SCT020
     FM201400 00000KT P6SM SKC
     FM201800 28004KT P6SM VCSH SCT045=

USA.gov is the U.S. government's official web portal to all federal, state and local government web resources and services.